Time;durP1;ratioP1;P1;durP2;ratioP2;P2;SDS_P1;SDS_P2;PMS_P1;PMS_P2;Temp;Humidity;BMP_temperature;BMP_pressure;BME280_temperature;BME280_humidity;BME280_pressure;Samples;Min_cycle;Max_cycle;Signal;HPM_P1;HPM_P2
2022/05/14 00:00:42;;;;;;;5.83;2.00;;;;;;;;;;4955578;28;20852;-43
2022/05/14 00:03:08;;;;;;;6.73;2.43;;;;;;;;;;4965072;28;20430;-43
2022/05/14 00:05:34;;;;;;;8.77;2.50;;;;;;;;;;4962414;28;20178;-42
2022/05/14 00:08:00;;;;;;;9.43;2.50;;;;;;;;;;4959325;28;20504;-43
2022/05/14 00:10:28;;;;;;;6.53;2.20;;;;;;;;;;4960120;28;20585;-42
2022/05/14 00:13:03;;;;;;;6.30;2.67;;;;;;;;;;4960449;28;21084;-42
2022/05/14 00:15:30;;;;;;;5.70;2.10;;;;;;;;;;4956155;28;20881;-42
2022/05/14 00:17:57;;;;;;;9.57;2.87;;;;;;;;;;4961479;28;20182;-43
2022/05/14 00:20:23;;;;;;;7.73;2.47;;;;;;;;;;4963180;28;20291;-43
2022/05/14 00:22:50;;;;;;;8.70;2.40;;;;;;;;;;4957758;28;20213;-43
2022/05/14 00:25:16;;;;;;;9.23;2.93;;;;;;;;;;4956935;28;20280;-42
2022/05/14 00:27:43;;;;;;;5.47;2.30;;;;;;;;;;4954583;28;20562;-42
2022/05/14 00:30:11;;;;;;;6.53;2.53;;;;;;;;;;4960827;28;20235;-43
2022/05/14 00:32:37;;;;;;;6.10;2.27;;;;;;;;;;4960278;28;20182;-43
2022/05/14 00:35:04;;;;;;;9.53;2.47;;;;;;;;;;4961446;28;20678;-41
2022/05/14 00:37:30;;;;;;;8.20;2.40;;;;;;;;;;4959919;28;20177;-42
2022/05/14 00:39:56;;;;;;;9.10;2.50;;;;;;;;;;4962890;28;20193;-43
2022/05/14 00:42:22;;;;;;;7.60;2.70;;;;;;;;;;4964757;28;20181;-43
2022/05/14 00:44:48;;;;;;;6.00;2.60;;;;;;;;;;4964235;28;20858;-42
2022/05/14 00:47:16;;;;;;;8.93;2.77;;;;;;;;;;4965697;28;20280;-43
2022/05/14 00:49:42;;;;;;;6.10;2.63;;;;;;;;;;4960992;28;20214;-42
2022/05/14 00:52:12;;;;;;;7.97;2.63;;;;;;;;;;4960870;28;20178;-43
2022/05/14 00:54:42;;;;;;;5.20;2.77;;;;;;;;;;4966513;28;20178;-41
2022/05/14 00:57:09;;;;;;;5.43;3.20;;;;;;;;;;4967143;28;20174;-43
2022/05/14 00:59:36;;;;;;;9.77;3.70;;;;;;;;;;4963589;28;20178;-43
2022/05/14 01:02:04;;;;;;;9.27;3.63;;;;;;;;;;4965250;28;20716;-43
2022/05/14 01:04:30;;;;;;;8.47;3.73;;;;;;;;;;4963025;28;20200;-43
2022/05/14 01:07:01;;;;;;;10.50;4.20;;;;;;;;;;4963452;28;20193;-43
2022/05/14 01:09:27;;;;;;;6.70;3.83;;;;;;;;;;4961777;28;20508;-43
2022/05/14 01:11:54;;;;;;;7.73;4.10;;;;;;;;;;4960122;28;20730;-42
2022/05/14 01:14:21;;;;;;;7.17;4.53;;;;;;;;;;4964234;28;20202;-42
2022/05/14 01:16:47;;;;;;;6.90;4.40;;;;;;;;;;4960151;28;20201;-41
2022/05/14 01:19:13;;;;;;;10.63;4.60;;;;;;;;;;4958095;28;20273;-43
2022/05/14 01:21:52;;;;;;;10.43;4.70;;;;;;;;;;4962617;28;20190;-42
2022/05/14 01:27:07;;;;;;;6.80;3.87;;;;;;;;;;4960039;28;20322;-43
2022/05/14 01:29:34;;;;;;;9.77;5.13;;;;;;;;;;4961719;28;20586;-43
2022/05/14 01:32:00;;;;;;;6.60;4.67;;;;;;;;;;4963703;28;20280;-43
2022/05/14 01:34:28;;;;;;;11.10;4.80;;;;;;;;;;4961705;28;20956;-42
2022/05/14 01:36:55;;;;;;;8.70;5.13;;;;;;;;;;4961063;28;20775;-43
2022/05/14 01:39:21;;;;;;;11.83;5.47;;;;;;;;;;4961145;28;20178;-43
2022/05/14 01:41:47;;;;;;;11.37;4.67;;;;;;;;;;4964539;28;20521;-42
2022/05/14 01:44:13;;;;;;;8.10;5.00;;;;;;;;;;4962864;28;21037;-43
2022/05/14 01:46:39;;;;;;;8.77;4.83;;;;;;;;;;4959688;28;20488;-43
2022/05/14 01:49:06;;;;;;;11.27;4.90;;;;;;;;;;4963333;28;20198;-43
2022/05/14 01:51:32;;;;;;;8.17;4.97;;;;;;;;;;4963241;28;20501;-43
2022/05/14 01:53:58;;;;;;;10.53;4.80;;;;;;;;;;4959723;28;20170;-43
2022/05/14 01:56:24;;;;;;;10.63;4.77;;;;;;;;;;4959145;28;20186;-43
2022/05/14 01:58:51;;;;;;;7.90;4.47;;;;;;;;;;4963512;28;20736;-43
2022/05/14 02:01:25;;;;;;;10.47;4.93;;;;;;;;;;4960217;28;20231;-44
2022/05/14 02:03:55;;;;;;;11.10;4.77;;;;;;;;;;4961331;28;20241;-43
2022/05/14 02:06:22;;;;;;;9.87;5.10;;;;;;;;;;4963470;28;20337;-42
2022/05/14 02:08:48;;;;;;;13.03;5.13;;;;;;;;;;4958171;28;20520;-43
2022/05/14 02:11:15;;;;;;;7.30;4.00;;;;;;;;;;4960424;28;20629;-43
2022/05/14 02:13:41;;;;;;;9.20;4.40;;;;;;;;;;4960867;28;20618;-43
2022/05/14 02:16:08;;;;;;;8.40;4.37;;;;;;;;;;4958716;28;20170;-41
2022/05/14 02:18:35;;;;;;;8.70;4.00;;;;;;;;;;4962140;28;20607;-43
2022/05/14 02:21:01;;;;;;;8.07;3.67;;;;;;;;;;4962061;28;20178;-43
2022/05/14 02:23:27;;;;;;;9.07;3.97;;;;;;;;;;4960369;28;20170;-43
2022/05/14 02:25:54;;;;;;;7.73;3.93;;;;;;;;;;4958716;28;20170;-41
2022/05/14 02:28:20;;;;;;;7.53;3.87;;;;;;;;;;4965490;28;20733;-42
2022/05/14 02:30:47;;;;;;;11.43;4.00;;;;;;;;;;4963760;28;20657;-43
2022/05/14 02:33:13;;;;;;;8.93;3.53;;;;;;;;;;4960158;28;20689;-43
2022/05/14 02:35:39;;;;;;;7.27;3.60;;;;;;;;;;4960104;28;20983;-43
2022/05/14 02:38:06;;;;;;;7.03;3.40;;;;;;;;;;4967406;28;20642;-43
2022/05/14 02:40:32;;;;;;;7.77;3.47;;;;;;;;;;4959741;28;20946;-42
2022/05/14 02:42:58;;;;;;;6.13;3.10;;;;;;;;;;4961234;28;20293;-42
2022/05/14 02:45:24;;;;;;;9.10;3.80;;;;;;;;;;4965549;28;20185;-43
2022/05/14 02:47:50;;;;;;;10.07;3.67;;;;;;;;;;4959647;28;20181;-42
2022/05/14 02:50:17;;;;;;;6.37;3.73;;;;;;;;;;4961317;28;20551;-43
2022/05/14 02:52:43;;;;;;;7.80;3.40;;;;;;;;;;4962243;28;20198;-43
2022/05/14 02:55:09;;;;;;;10.70;3.80;;;;;;;;;;4960002;28;20202;-43
2022/05/14 02:57:36;;;;;;;8.80;3.20;;;;;;;;;;4959703;28;20174;-43
2022/05/14 03:00:04;;;;;;;11.03;3.80;;;;;;;;;;4958496;28;20178;-43
2022/05/14 03:02:30;;;;;;;5.57;3.03;;;;;;;;;;4961284;28;20262;-43
2022/05/14 03:04:56;;;;;;;10.20;3.10;;;;;;;;;;4961173;28;20206;-43
2022/05/14 03:07:22;;;;;;;6.40;3.30;;;;;;;;;;4960604;28;20178;-42
2022/05/14 03:09:49;;;;;;;6.77;3.27;;;;;;;;;;4962984;28;20198;-43
2022/05/14 03:12:15;;;;;;;11.73;3.50;;;;;;;;;;4961644;28;20178;-42
2022/05/14 03:14:41;;;;;;;6.73;3.23;;;;;;;;;;4960318;28;20454;-43
2022/05/14 03:17:08;;;;;;;11.50;3.20;;;;;;;;;;4958779;28;20586;-43
2022/05/14 03:19:35;;;;;;;8.73;3.27;;;;;;;;;;4961435;28;20213;-42
2022/05/14 03:22:01;;;;;;;7.90;3.47;;;;;;;;;;4957769;28;20208;-42
2022/05/14 03:24:27;;;;;;;10.63;3.47;;;;;;;;;;4959100;28;20186;-43
2022/05/14 03:26:53;;;;;;;9.23;3.20;;;;;;;;;;4960653;28;20182;-44
2022/05/14 03:29:20;;;;;;;7.10;3.10;;;;;;;;;;4959334;28;20267;-43
2022/05/14 03:31:47;;;;;;;7.33;3.60;;;;;;;;;;4960707;28;20175;-44
2022/05/14 03:34:13;;;;;;;7.53;3.10;;;;;;;;;;4958185;28;20170;-42
2022/05/14 03:36:40;;;;;;;6.63;3.50;;;;;;;;;;4961308;28;20190;-44
2022/05/14 03:39:06;;;;;;;11.27;3.50;;;;;;;;;;4962506;28;20222;-44
2022/05/14 03:41:33;;;;;;;5.33;3.43;;;;;;;;;;4961913;28;20749;-43
2022/05/14 03:43:59;;;;;;;6.93;3.70;;;;;;;;;;4958579;28;20189;-42
2022/05/14 03:46:25;;;;;;;8.13;3.57;;;;;;;;;;4961136;28;20181;-44
2022/05/14 03:48:51;;;;;;;8.53;3.60;;;;;;;;;;4960391;28;20302;-43
2022/05/14 03:51:18;;;;;;;6.23;3.70;;;;;;;;;;4959253;28;20633;-43
2022/05/14 03:53:44;;;;;;;11.23;4.53;;;;;;;;;;4955385;28;20506;-43
2022/05/14 03:56:10;;;;;;;8.47;4.23;;;;;;;;;;4962074;28;20277;-43
2022/05/14 03:58:36;;;;;;;9.33;4.23;;;;;;;;;;4955564;28;20516;-44
2022/05/14 04:01:03;;;;;;;10.67;4.37;;;;;;;;;;4954204;28;20831;-43
2022/05/14 04:03:30;;;;;;;12.13;5.20;;;;;;;;;;4953443;28;20170;-43
2022/05/14 04:05:56;;;;;;;9.87;4.83;;;;;;;;;;4955986;28;21028;-43
2022/05/14 04:08:23;;;;;;;8.83;4.87;;;;;;;;;;4954492;28;20185;-44
2022/05/14 04:10:49;;;;;;;9.97;5.37;;;;;;;;;;4952192;28;20284;-44
2022/05/14 04:13:15;;;;;;;13.77;5.07;;;;;;;;;;4958990;28;20170;-44
2022/05/14 04:15:41;;;;;;;13.40;5.53;;;;;;;;;;4961397;28;20182;-44
2022/05/14 04:18:09;;;;;;;9.17;4.50;;;;;;;;;;4962550;28;20178;-44
2022/05/14 04:20:35;;;;;;;10.20;5.53;;;;;;;;;;4960525;28;20253;-44
2022/05/14 04:23:01;;;;;;;12.93;5.33;;;;;;;;;;4966312;28;20333;-42
2022/05/14 04:25:27;;;;;;;14.27;6.03;;;;;;;;;;4962715;28;20174;-44
2022/05/14 04:27:53;;;;;;;13.43;5.67;;;;;;;;;;4963575;28;20516;-44
2022/05/14 04:30:20;;;;;;;11.43;5.37;;;;;;;;;;4956939;28;20202;-44
2022/05/14 04:32:46;;;;;;;15.90;5.23;;;;;;;;;;4961941;28;20395;-44
2022/05/14 04:35:14;;;;;;;9.20;5.17;;;;;;;;;;4962260;28;20170;-44
2022/05/14 04:37:40;;;;;;;16.10;5.43;;;;;;;;;;4958879;28;20180;-44
2022/05/14 04:40:08;;;;;;;11.90;5.43;;;;;;;;;;4961685;28;20276;-43
2022/05/14 04:42:36;;;;;;;15.23;5.33;;;;;;;;;;4964815;28;20186;-44
2022/05/14 04:45:02;;;;;;;9.83;5.30;;;;;;;;;;4962349;28;20717;-44
2022/05/14 04:47:29;;;;;;;8.93;5.33;;;;;;;;;;4961876;28;20773;-44
2022/05/14 04:49:55;;;;;;;15.63;6.27;;;;;;;;;;4961803;28;20391;-44
2022/05/14 04:52:21;;;;;;;9.90;5.60;;;;;;;;;;4962038;28;20183;-43
2022/05/14 04:54:47;;;;;;;10.80;5.10;;;;;;;;;;4962553;28;20714;-44
2022/05/14 04:57:13;;;;;;;14.60;6.47;;;;;;;;;;4960323;28;20170;-43
2022/05/14 04:59:39;;;;;;;18.37;6.47;;;;;;;;;;4957273;28;20936;-44
2022/05/14 05:04:50;;;;;;;10.00;5.37;;;;;;;;;;4962361;28;20304;-44
2022/05/14 05:07:16;;;;;;;11.87;5.70;;;;;;;;;;4962777;28;20182;-44
2022/05/14 05:09:42;;;;;;;17.00;6.00;;;;;;;;;;4963067;28;20236;-43
2022/05/14 05:12:08;;;;;;;12.57;6.13;;;;;;;;;;4960001;28;20590;-44
2022/05/14 05:14:34;;;;;;;13.57;6.27;;;;;;;;;;4959535;28;21281;-43
2022/05/14 05:17:00;;;;;;;9.73;5.63;;;;;;;;;;4944093;28;20212;-43
2022/05/14 05:19:26;;;;;;;13.80;6.40;;;;;;;;;;4961844;28;20182;-44
2022/05/14 05:21:52;;;;;;;20.33;7.17;;;;;;;;;;4962723;28;20260;-42
2022/05/14 05:24:18;;;;;;;9.40;5.70;;;;;;;;;;4959902;28;20296;-44
2022/05/14 05:26:45;;;;;;;12.57;5.50;;;;;;;;;;4958020;28;20180;-43
2022/05/14 05:29:11;;;;;;;11.30;6.57;;;;;;;;;;4963945;28;20190;-43
2022/05/14 05:31:39;;;;;;;15.57;6.07;;;;;;;;;;4961222;28;20942;-43
2022/05/14 05:34:05;;;;;;;12.13;6.33;;;;;;;;;;4960822;28;20979;-44
2022/05/14 05:36:31;;;;;;;16.83;6.90;;;;;;;;;;4964563;28;21065;-44
2022/05/14 05:38:58;;;;;;;14.77;6.97;;;;;;;;;;4966548;28;20180;-44
2022/05/14 05:41:24;;;;;;;17.20;6.97;;;;;;;;;;4961688;28;20256;-44
2022/05/14 05:43:50;;;;;;;13.43;6.63;;;;;;;;;;4962768;28;20261;-44
2022/05/14 05:46:16;;;;;;;14.73;6.80;;;;;;;;;;4963070;28;20787;-44
2022/05/14 05:48:43;;;;;;;10.87;6.63;;;;;;;;;;4967461;28;20185;-44
2022/05/14 05:51:10;;;;;;;12.57;6.57;;;;;;;;;;4961960;28;20175;-44
2022/05/14 05:59:07;;;;;;;14.93;5.90;;;;;;;;;;4965232;28;21037;-44
2022/05/14 06:01:34;;;;;;;12.30;6.03;;;;;;;;;;4959214;28;20178;-43
2022/05/14 06:04:01;;;;;;;10.53;5.60;;;;;;;;;;4964169;28;20276;-43
2022/05/14 06:06:27;;;;;;;12.13;5.60;;;;;;;;;;4965610;28;20183;-44
2022/05/14 06:08:54;;;;;;;15.40;5.40;;;;;;;;;;4959828;28;20952;-44
2022/05/14 06:11:20;;;;;;;13.53;5.73;;;;;;;;;;4941976;28;20206;-44
2022/05/14 06:13:46;;;;;;;11.60;5.70;;;;;;;;;;4961031;28;20201;-43
2022/05/14 06:16:13;;;;;;;11.03;5.63;;;;;;;;;;4963257;28;20201;-43
2022/05/14 06:18:39;;;;;;;17.03;6.20;;;;;;;;;;4957437;28;20187;-44
2022/05/14 06:21:05;;;;;;;13.97;6.20;;;;;;;;;;4962259;28;20166;-44
2022/05/14 06:23:32;;;;;;;10.70;5.70;;;;;;;;;;4962607;28;20243;-42
2022/05/14 06:25:58;;;;;;;14.97;5.90;;;;;;;;;;4959862;28;20181;-44
2022/05/14 06:28:24;;;;;;;14.50;6.37;;;;;;;;;;4963360;28;20166;-44
2022/05/14 06:30:50;;;;;;;14.20;6.03;;;;;;;;;;4968290;28;20914;-44
2022/05/14 06:33:17;;;;;;;14.97;6.50;;;;;;;;;;4961209;28;20186;-44
2022/05/14 06:35:44;;;;;;;12.23;6.20;;;;;;;;;;4961332;28;20256;-44
2022/05/14 06:38:10;;;;;;;15.27;6.23;;;;;;;;;;4962601;28;20323;-44
2022/05/14 06:40:37;;;;;;;13.03;5.87;;;;;;;;;;4957048;28;20183;-42
2022/05/14 06:43:03;;;;;;;14.90;5.90;;;;;;;;;;4959708;28;20575;-43
2022/05/14 06:45:30;;;;;;;12.00;5.53;;;;;;;;;;4958527;28;20195;-44
2022/05/14 06:47:57;;;;;;;14.07;5.67;;;;;;;;;;4956231;28;20684;-43
2022/05/14 06:50:24;;;;;;;9.57;5.17;;;;;;;;;;4956256;28;20725;-43
2022/05/14 06:52:51;;;;;;;12.40;5.10;;;;;;;;;;4955696;28;20170;-44
2022/05/14 06:55:19;;;;;;;11.20;5.03;;;;;;;;;;4958952;28;20216;-43
2022/05/14 06:57:46;;;;;;;15.23;4.90;;;;;;;;;;4961531;28;20225;-44
2022/05/14 07:00:12;;;;;;;9.73;4.57;;;;;;;;;;4960183;28;20660;-43
2022/05/14 07:02:39;;;;;;;10.63;4.53;;;;;;;;;;4958466;28;20186;-43
2022/05/14 07:07:50;;;;;;;10.00;4.70;;;;;;;;;;4961091;28;20536;-42
2022/05/14 07:10:16;;;;;;;12.80;5.40;;;;;;;;;;4959219;28;20202;-43
2022/05/14 07:12:42;;;;;;;11.90;5.23;;;;;;;;;;4955083;28;20170;-44
2022/05/14 07:15:09;;;;;;;9.23;4.83;;;;;;;;;;4955524;28;20733;-43
2022/05/14 07:17:35;;;;;;;12.43;4.90;;;;;;;;;;4958113;28;20170;-42
2022/05/14 07:20:01;;;;;;;12.97;5.60;;;;;;;;;;4959142;28;20591;-43
2022/05/14 07:22:27;;;;;;;11.27;5.37;;;;;;;;;;4960644;28;20245;-42
2022/05/14 07:24:53;;;;;;;15.57;5.77;;;;;;;;;;4935377;28;20189;-43
2022/05/14 07:27:19;;;;;;;12.20;5.70;;;;;;;;;;4951088;28;20244;-43
2022/05/14 07:29:46;;;;;;;10.30;5.10;;;;;;;;;;4957528;28;20657;-44
2022/05/14 07:32:13;;;;;;;12.43;5.20;;;;;;;;;;4959900;28;20253;-43
2022/05/14 07:34:40;;;;;;;14.57;5.37;;;;;;;;;;4952607;28;20181;-44
2022/05/14 07:37:08;;;;;;;16.47;5.47;;;;;;;;;;4960356;28;20197;-44
2022/05/14 07:39:38;;;;;;;11.60;5.37;;;;;;;;;;4957612;28;20563;-44
2022/05/14 07:42:05;;;;;;;10.47;5.07;;;;;;;;;;4960127;28;20393;-44
2022/05/14 07:44:33;;;;;;;14.03;5.50;;;;;;;;;;4958572;28;20186;-44
2022/05/14 07:46:59;;;;;;;11.30;6.00;;;;;;;;;;4961300;28;20604;-44
2022/05/14 07:49:27;;;;;;;14.13;5.73;;;;;;;;;;4958752;28;20249;-44
2022/05/14 07:51:54;;;;;;;11.40;6.30;;;;;;;;;;4956956;28;20174;-44
2022/05/14 07:54:21;;;;;;;10.53;6.10;;;;;;;;;;4957435;28;21519;-44
2022/05/14 07:56:47;;;;;;;14.47;6.37;;;;;;;;;;4956847;28;20709;-44
2022/05/14 07:59:13;;;;;;;13.10;6.00;;;;;;;;;;4956699;28;20568;-44
2022/05/14 08:01:40;;;;;;;9.50;5.90;;;;;;;;;;4950684;28;20170;-43
2022/05/14 08:04:07;;;;;;;11.93;6.43;;;;;;;;;;4933294;28;20190;-44
2022/05/14 08:06:33;;;;;;;12.43;5.80;;;;;;;;;;4956940;28;20181;-43
2022/05/14 08:08:59;;;;;;;10.63;5.97;;;;;;;;;;4957345;28;20221;-44
2022/05/14 08:11:26;;;;;;;14.20;6.13;;;;;;;;;;4960789;28;20902;-43
2022/05/14 08:13:54;;;;;;;11.67;6.10;;;;;;;;;;4957500;28;20178;-44
2022/05/14 08:16:21;;;;;;;12.30;5.27;;;;;;;;;;4962737;28;20269;-44
2022/05/14 08:18:47;;;;;;;11.10;6.17;;;;;;;;;;4960099;28;20189;-44
2022/05/14 08:26:43;;;;;;;12.73;5.57;;;;;;;;;;4955300;28;21918;-44
2022/05/14 08:29:10;;;;;;;11.30;6.13;;;;;;;;;;4956261;28;20200;-43
2022/05/14 08:31:36;;;;;;;11.43;5.80;;;;;;;;;;4956432;28;21499;-44
2022/05/14 08:34:02;;;;;;;12.63;5.43;;;;;;;;;;4957456;28;20179;-44
2022/05/14 08:36:29;;;;;;;12.00;5.67;;;;;;;;;;4958353;28;20763;-43
2022/05/14 08:38:55;;;;;;;12.63;5.47;;;;;;;;;;4957007;28;20200;-44
2022/05/14 08:41:21;;;;;;;15.20;5.53;;;;;;;;;;4957627;28;20546;-44
2022/05/14 08:43:49;;;;;;;10.00;5.83;;;;;;;;;;4950668;28;20637;-43
2022/05/14 08:46:20;;;;;;;9.90;6.17;;;;;;;;;;4956602;28;20261;-44
2022/05/14 08:48:50;;;;;;;14.80;6.20;;;;;;;;;;4954377;28;20685;-43
2022/05/14 08:51:30;;;;;;;12.57;5.80;;;;;;;;;;4954009;28;20186;-44
2022/05/14 08:53:56;;;;;;;12.87;5.73;;;;;;;;;;4956449;28;20186;-44
2022/05/14 08:56:44;;;;;;;14.47;5.90;;;;;;;;;;4952765;28;21242;-44
2022/05/14 08:59:29;;;;;;;11.27;5.33;;;;;;;;;;4957607;28;20799;-44
2022/05/14 09:02:15;;;;;;;8.77;5.83;;;;;;;;;;4962458;28;20280;-43
2022/05/14 09:04:42;;;;;;;12.23;5.53;;;;;;;;;;4960078;28;20185;-44
2022/05/14 09:07:08;;;;;;;11.23;5.53;;;;;;;;;;4960449;28;20289;-44
2022/05/14 09:09:34;;;;;;;10.17;5.00;;;;;;;;;;4961625;28;20253;-42
2022/05/14 09:12:03;;;;;;;11.77;5.70;;;;;;;;;;4959999;28;21074;-44
2022/05/14 09:14:32;;;;;;;12.17;5.23;;;;;;;;;;4962242;28;20174;-44
2022/05/14 09:17:04;;;;;;;13.13;5.30;;;;;;;;;;4964400;28;20266;-44
2022/05/14 09:19:38;;;;;;;9.07;4.77;;;;;;;;;;4961679;28;20877;-44
2022/05/14 09:22:17;;;;;;;10.83;4.90;;;;;;;;;;4962280;28;20177;-45
2022/05/14 09:24:50;;;;;;;8.83;4.60;;;;;;;;;;4963882;28;20183;-44
2022/05/14 09:27:24;;;;;;;12.37;5.30;;;;;;;;;;4960268;28;20189;-44
2022/05/14 09:29:53;;;;;;;20.73;6.30;;;;;;;;;;4968106;28;20209;-45
2022/05/14 09:32:20;;;;;;;11.20;4.63;;;;;;;;;;4959027;28;20617;-45
2022/05/14 09:34:47;;;;;;;12.57;5.40;;;;;;;;;;4958060;28;20607;-45
2022/05/14 09:37:18;;;;;;;14.10;5.17;;;;;;;;;;4965081;28;20181;-45
2022/05/14 09:39:55;;;;;;;13.97;5.60;;;;;;;;;;4963892;28;20831;-44
2022/05/14 09:42:26;;;;;;;12.50;5.30;;;;;;;;;;4963403;28;21070;-43
2022/05/14 09:44:53;;;;;;;8.73;4.40;;;;;;;;;;4960752;28;20232;-44
2022/05/14 09:47:27;;;;;;;11.83;4.70;;;;;;;;;;4964019;28;20174;-43
2022/05/14 09:49:59;;;;;;;9.90;4.37;;;;;;;;;;4963720;28;21103;-43
2022/05/14 09:52:28;;;;;;;11.40;4.77;;;;;;;;;;4961619;28;20728;-43
2022/05/14 09:54:54;;;;;;;11.10;4.80;;;;;;;;;;4959297;28;20198;-44
2022/05/14 09:57:23;;;;;;;12.37;4.60;;;;;;;;;;4960997;28;20316;-43
2022/05/14 10:00:08;;;;;;;10.77;4.60;;;;;;;;;;4960592;28;20186;-42
2022/05/14 10:02:53;;;;;;;10.80;4.90;;;;;;;;;;4960696;28;20173;-43
2022/05/14 10:05:19;;;;;;;12.30;4.77;;;;;;;;;;4964570;28;20182;-42
2022/05/14 10:07:48;;;;;;;12.07;5.80;;;;;;;;;;4966318;28;20496;-43
2022/05/14 10:10:20;;;;;;;12.60;5.80;;;;;;;;;;4963097;28;20650;-43
2022/05/14 10:12:49;;;;;;;13.83;6.00;;;;;;;;;;4959386;28;20383;-43
2022/05/14 10:15:32;;;;;;;18.67;6.70;;;;;;;;;;4956967;28;20177;-42
2022/05/14 10:17:58;;;;;;;15.20;7.40;;;;;;;;;;4962119;28;20179;-42
2022/05/14 10:20:27;;;;;;;14.43;6.00;;;;;;;;;;4965219;28;20563;-43
2022/05/14 10:28:56;;;;;;;13.20;5.70;;;;;;;;;;4965079;28;20189;-41
2022/05/14 10:31:30;;;;;;;13.03;5.80;;;;;;;;;;4961257;28;20182;-43
2022/05/14 10:33:57;;;;;;;12.33;5.57;;;;;;;;;;4961236;28;20369;-42
2022/05/14 10:36:45;;;;;;;16.13;6.60;;;;;;;;;;4961823;28;20174;-43
2022/05/14 10:39:18;;;;;;;8.23;5.70;;;;;;;;;;4964785;28;20279;-43
2022/05/14 10:41:46;;;;;;;15.87;5.90;;;;;;;;;;4961129;28;20181;-42
2022/05/14 10:44:15;;;;;;;16.53;6.27;;;;;;;;;;4960049;28;20197;-43
2022/05/14 10:46:42;;;;;;;12.23;5.23;;;;;;;;;;4964252;28;20190;-42
2022/05/14 10:49:18;;;;;;;11.97;5.73;;;;;;;;;;4965728;28;20705;-43
2022/05/14 10:51:47;;;;;;;9.37;5.07;;;;;;;;;;4960134;28;20181;-43
2022/05/14 10:54:18;;;;;;;15.47;5.50;;;;;;;;;;4964793;28;20179;-42
2022/05/14 10:56:53;;;;;;;20.27;5.83;;;;;;;;;;4965076;28;20174;-43
2022/05/14 10:59:28;;;;;;;10.03;5.20;;;;;;;;;;4964462;28;20197;-43
2022/05/14 11:01:54;;;;;;;7.30;4.73;;;;;;;;;;4960897;28;20302;-43
2022/05/14 11:04:23;;;;;;;11.87;4.53;;;;;;;;;;4962215;28;20288;-42
2022/05/14 11:06:51;;;;;;;13.47;5.50;;;;;;;;;;4965818;28;20246;-42
2022/05/14 11:09:36;;;;;;;14.77;6.13;;;;;;;;;;4963981;28;20213;-43
2022/05/14 11:12:04;;;;;;;11.67;5.60;;;;;;;;;;4960971;28;20183;-43
2022/05/14 11:14:37;;;;;;;11.33;5.70;;;;;;;;;;4963925;28;20602;-43
2022/05/14 11:17:04;;;;;;;9.83;4.43;;;;;;;;;;4964667;28;20187;-43
2022/05/14 11:19:31;;;;;;;6.83;4.23;;;;;;;;;;4958684;28;21234;-42
2022/05/14 11:21:58;;;;;;;10.47;4.97;;;;;;;;;;4960426;28;20186;-43
2022/05/14 11:24:35;;;;;;;9.57;5.17;;;;;;;;;;4965322;28;20190;-42
2022/05/14 11:27:01;;;;;;;7.80;4.80;;;;;;;;;;4962009;28;20189;-43
2022/05/14 11:29:28;;;;;;;11.03;4.80;;;;;;;;;;4958193;28;20201;-43
2022/05/14 11:32:15;;;;;;;9.33;4.07;;;;;;;;;;4959072;28;20198;-43
2022/05/14 11:34:51;;;;;;;9.57;4.23;;;;;;;;;;4966433;28;21015;-43
2022/05/14 11:37:26;;;;;;;12.07;4.07;;;;;;;;;;4962996;28;20185;-43
2022/05/14 11:40:03;;;;;;;11.77;4.20;;;;;;;;;;4960859;28;20725;-43
2022/05/14 11:42:30;;;;;;;12.17;4.20;;;;;;;;;;4964086;28;20892;-42
2022/05/14 11:45:12;;;;;;;8.83;3.80;;;;;;;;;;4959480;28;20690;-43
2022/05/14 11:48:00;;;;;;;6.33;3.63;;;;;;;;;;4961018;28;20178;-43
2022/05/14 11:50:30;;;;;;;10.43;4.47;;;;;;;;;;4966551;28;20318;-41
2022/05/14 11:53:10;;;;;;;10.70;4.20;;;;;;;;;;4960776;28;20178;-42
2022/05/14 11:55:49;;;;;;;8.67;4.30;;;;;;;;;;4959776;28;20209;-42
2022/05/14 11:58:19;;;;;;;11.70;4.27;;;;;;;;;;4963600;28;20193;-43
2022/05/14 12:00:46;;;;;;;9.67;3.83;;;;;;;;;;4962115;28;20989;-43
2022/05/14 12:03:26;;;;;;;12.83;4.20;;;;;;;;;;4955047;28;20184;-41
2022/05/14 12:05:58;;;;;;;8.60;3.73;;;;;;;;;;4957931;28;20174;-43
2022/05/14 12:08:37;;;;;;;6.70;3.67;;;;;;;;;;4960046;28;20193;-42
2022/05/14 12:11:09;;;;;;;7.30;4.13;;;;;;;;;;4956012;28;21133;-44
2022/05/14 12:13:49;;;;;;;12.70;4.27;;;;;;;;;;4957652;28;20190;-43
2022/05/14 12:16:16;;;;;;;7.90;4.07;;;;;;;;;;4960215;28;20201;-43
2022/05/14 12:18:43;;;;;;;11.23;4.47;;;;;;;;;;4956962;28;20178;-43
2022/05/14 12:21:09;;;;;;;12.30;4.07;;;;;;;;;;4952630;28;20302;-43
2022/05/14 12:23:40;;;;;;;10.73;3.97;;;;;;;;;;4958201;28;20186;-43
2022/05/14 12:26:08;;;;;;;9.20;4.40;;;;;;;;;;4959498;28;20718;-44
2022/05/14 12:28:35;;;;;;;6.93;3.90;;;;;;;;;;4955075;28;20451;-44
2022/05/14 12:33:57;;;;;;;6.67;3.67;;;;;;;;;;4962165;28;20194;-44
2022/05/14 12:36:24;;;;;;;14.50;4.50;;;;;;;;;;4934444;28;20629;-43
2022/05/14 12:38:50;;;;;;;8.87;3.90;;;;;;;;;;4959551;28;20174;-44
2022/05/14 12:41:27;;;;;;;7.90;3.83;;;;;;;;;;4965980;28;20588;-44
2022/05/14 12:43:54;;;;;;;10.87;4.53;;;;;;;;;;4960946;28;20197;-44
2022/05/14 12:46:22;;;;;;;11.70;4.07;;;;;;;;;;4965483;28;20178;-43
2022/05/14 12:48:50;;;;;;;10.67;4.97;;;;;;;;;;4967929;28;20188;-44
2022/05/14 12:51:21;;;;;;;9.10;4.30;;;;;;;;;;4965892;28;20993;-44
2022/05/14 12:53:47;;;;;;;7.60;4.00;;;;;;;;;;4961489;28;20263;-42
2022/05/14 12:56:15;;;;;;;7.93;4.27;;;;;;;;;;4963450;28;20251;-42
2022/05/14 12:58:41;;;;;;;13.73;4.47;;;;;;;;;;4964055;28;20233;-43
2022/05/14 13:01:08;;;;;;;8.47;4.23;;;;;;;;;;4963500;28;20178;-43
2022/05/14 13:03:46;;;;;;;8.63;3.93;;;;;;;;;;4959717;28;20186;-44
2022/05/14 13:06:16;;;;;;;8.67;4.13;;;;;;;;;;4964259;28;20186;-44
2022/05/14 13:08:53;;;;;;;7.27;3.53;;;;;;;;;;4963950;28;20313;-44
2022/05/14 13:11:21;;;;;;;7.10;3.27;;;;;;;;;;4959350;28;20762;-44
2022/05/14 13:13:49;;;;;;;8.43;3.80;;;;;;;;;;4960949;28;20480;-44
2022/05/14 13:16:22;;;;;;;7.07;3.53;;;;;;;;;;4964516;28;20183;-43
2022/05/14 13:18:51;;;;;;;7.00;3.50;;;;;;;;;;4963189;28;20625;-43
2022/05/14 13:21:21;;;;;;;11.50;3.90;;;;;;;;;;4965585;28;20186;-44
2022/05/14 13:23:56;;;;;;;10.93;3.57;;;;;;;;;;4963693;28;20178;-44
2022/05/14 13:26:33;;;;;;;8.33;3.23;;;;;;;;;;4963436;28;20194;-44
2022/05/14 13:29:08;;;;;;;6.57;3.50;;;;;;;;;;4962280;28;20694;-44
2022/05/14 13:31:34;;;;;;;8.83;3.50;;;;;;;;;;4963688;28;20178;-43
2022/05/14 13:37:08;;;;;;;8.23;3.43;;;;;;;;;;4958334;28;20286;-42
2022/05/14 13:39:48;;;;;;;6.87;3.37;;;;;;;;;;4961329;28;20183;-44
2022/05/14 13:42:20;;;;;;;8.20;3.27;;;;;;;;;;4961415;28;20187;-42
2022/05/14 13:44:48;;;;;;;7.73;3.10;;;;;;;;;;4960863;28;20190;-44
2022/05/14 13:47:17;;;;;;;5.27;3.13;;;;;;;;;;4961628;28;20176;-44
2022/05/14 13:49:43;;;;;;;5.57;3.33;;;;;;;;;;4939074;28;20724;-44
2022/05/14 13:52:09;;;;;;;9.40;3.67;;;;;;;;;;4961955;28;20695;-44
2022/05/14 13:54:38;;;;;;;5.87;3.20;;;;;;;;;;4963137;28;20181;-44
2022/05/14 13:57:04;;;;;;;9.17;3.10;;;;;;;;;;4959344;28;20184;-43
2022/05/14 13:59:34;;;;;;;7.30;3.20;;;;;;;;;;4961331;28;20187;-43
2022/05/14 14:02:09;;;;;;;7.13;3.50;;;;;;;;;;4962203;28;20469;-43
2022/05/14 14:04:37;;;;;;;7.17;3.67;;;;;;;;;;4964166;28;20331;-43
2022/05/14 14:07:06;;;;;;;5.83;3.20;;;;;;;;;;4962802;28;20182;-43
2022/05/14 14:09:32;;;;;;;6.87;3.23;;;;;;;;;;4966315;28;20204;-43
2022/05/14 14:11:59;;;;;;;8.00;3.30;;;;;;;;;;4962422;28;20560;-44
2022/05/14 14:14:25;;;;;;;17.70;4.47;;;;;;;;;;4956544;28;20187;-44
2022/05/14 14:16:52;;;;;;;10.37;3.80;;;;;;;;;;4963444;28;20621;-44
2022/05/14 14:19:18;;;;;;;4.27;2.90;;;;;;;;;;4967674;28;20375;-43
2022/05/14 14:21:44;;;;;;;6.30;3.50;;;;;;;;;;4961875;28;20288;-42
2022/05/14 14:24:15;;;;;;;6.57;3.37;;;;;;;;;;4960277;28;20204;-43
2022/05/14 14:26:42;;;;;;;6.90;3.50;;;;;;;;;;4963361;28;20178;-43
2022/05/14 14:29:08;;;;;;;7.20;3.37;;;;;;;;;;4966471;28;21143;-43
2022/05/14 14:31:34;;;;;;;8.13;4.03;;;;;;;;;;4961700;28;20599;-43
2022/05/14 14:34:01;;;;;;;7.60;4.00;;;;;;;;;;4962779;28;20188;-42
2022/05/14 14:36:28;;;;;;;9.00;3.60;;;;;;;;;;4964252;28;20189;-43
2022/05/14 14:38:54;;;;;;;9.40;3.60;;;;;;;;;;4962670;28;20295;-42
2022/05/14 14:41:20;;;;;;;8.60;3.57;;;;;;;;;;4961139;28;20180;-42
2022/05/14 14:43:48;;;;;;;9.13;3.53;;;;;;;;;;4959008;28;20204;-43
2022/05/14 14:46:15;;;;;;;7.40;3.63;;;;;;;;;;4963591;28;20779;-41
2022/05/14 14:48:41;;;;;;;6.27;2.77;;;;;;;;;;4961396;28;20216;-42
2022/05/14 14:51:08;;;;;;;6.47;3.50;;;;;;;;;;4961320;28;20768;-41
2022/05/14 14:53:35;;;;;;;7.20;3.10;;;;;;;;;;4961304;28;20529;-42
2022/05/14 14:56:01;;;;;;;6.57;3.00;;;;;;;;;;4965127;28;20683;-41
2022/05/14 14:58:27;;;;;;;8.57;3.00;;;;;;;;;;4964769;28;20179;-43
2022/05/14 15:00:57;;;;;;;7.30;3.40;;;;;;;;;;4962775;28;20185;-43
2022/05/14 15:03:26;;;;;;;6.67;3.33;;;;;;;;;;4960174;28;20496;-42
2022/05/14 15:05:54;;;;;;;7.97;3.30;;;;;;;;;;4964697;28;20185;-42
2022/05/14 15:08:21;;;;;;;8.53;3.50;;;;;;;;;;4961743;28;20190;-42
2022/05/14 15:10:48;;;;;;;8.53;3.27;;;;;;;;;;4964604;28;20207;-42
2022/05/14 15:13:15;;;;;;;9.97;3.30;;;;;;;;;;4960965;28;20177;-43